Airfield :
LOGIN :

Register | Disclaimer

   EN    FR    IT 

 










Legend :    VFR   Marginal VFR   IFR   Intensive IFR   Very Intensive IFR
Visi :
Ceiling :
>= 8 km
>= 3000ft
5 to 8 km
1000 to 3000 ft
1500m to 5 km
500 to 1000 ft
800 to 1500m
200 to 500 ft
< 800m
< 200 ft
Symbols :   Thunderstorms  Fog  Heavy snow  Heavy precipitations  Wind > 20 kt
SIGMETs :     Misc.  Thunderstorms  Icing  Turbulence  Mountain Waves  Volcanic Ashes






- Airport Elevation : 39 ft
- IATA code : ANR


EBAW - Anvers / Antwerpen Deurne

CURRENT METAR :
  • 301020Z 28019KT 9999 FEW025 08/02 Q1021 NOSIG

EXPIRED METARs :
  • 300950Z 27015KT 9999 FEW025 08/02 Q1020 NOSIG
  • 300920Z 27013KT 9999 FEW025 07/02 Q1020 NOSIG
  • 300850Z 27012KT 9999 FEW025 07/03 Q1020 NOSIG
  • 300820Z 26012KT 9999 SCT023 07/03 Q1019 NOSIG
  • 300750Z 28011KT 9999 SCT023 07/03 Q1019 NOSIG
  • 300720Z 28011KT 9999 FEW025 SCT049 07/03 Q1019 NOSIG

TAF TAF EBAW
Valid from the 30 at 09:00 until the 30 at 18:00 UTC


300810Z 3009/3018 29013KT 9999 FEW025
TEMPO 3009/3014 30015G25KT



MET'MAP, your aeronautical weather chart ! - Copyright ORBIFLY December 2007 - Disclaimer

ORBIFLY MET'MAP TEAM :

Programming & Development : Alexandra Zaïnal
Original concept : Baudouin d'Aumeries
Technical & hardware support : Manuel Goepfert
Assistance : Marc-Olivier Méhu




SOURCES & CREDITS :

   NOAA